createdAt,value
2018-10-09T00:00:05.414Z,77.20
2018-10-09T00:02:32.820Z,77.40
2018-10-09T00:05:00.307Z,77.70
2018-10-09T00:07:27.737Z,78.00
2018-10-09T00:09:55.173Z,77.50
2018-10-09T00:12:22.660Z,76.90
2018-10-09T00:14:50.290Z,76.70
2018-10-09T00:17:17.829Z,76.70
2018-10-09T00:19:45.259Z,76.70
2018-10-09T00:22:12.754Z,76.60
2018-10-09T00:24:40.157Z,76.80
2018-10-09T00:27:07.591Z,77.40
2018-10-09T00:29:35.038Z,77.50
2018-10-09T00:32:02.511Z,77.60
2018-10-09T00:34:29.950Z,77.70
2018-10-09T00:36:57.489Z,77.50
2018-10-09T00:39:31.124Z,77.00
2018-10-09T00:41:58.591Z,77.00
2018-10-09T00:44:25.966Z,76.80
2018-10-09T00:46:53.451Z,76.50
2018-10-09T00:49:21.132Z,76.80
2018-10-09T00:51:48.690Z,77.00
2018-10-09T00:54:16.139Z,77.00
2018-10-09T00:56:43.594Z,77.10
2018-10-09T00:59:11.220Z,76.40
2018-10-09T01:01:38.790Z,76.60
2018-10-09T01:04:06.351Z,76.90
2018-10-09T01:06:33.865Z,77.30
2018-10-09T01:09:01.352Z,77.40
2018-10-09T01:11:28.727Z,77.30
2018-10-09T01:13:56.198Z,77.20
2018-10-09T01:16:24.142Z,76.80
2018-10-09T01:18:51.613Z,76.70
2018-10-09T01:21:19.171Z,77.00
2018-10-09T01:23:46.781Z,76.90
2018-10-09T01:26:14.528Z,76.40
2018-10-09T01:28:42.247Z,76.40
2018-10-09T01:31:09.790Z,76.70
2018-10-09T01:33:37.226Z,76.90
2018-10-09T01:36:04.630Z,77.00
2018-10-09T01:38:32.068Z,77.00
2018-10-09T01:40:59.526Z,76.90
2018-10-09T01:43:26.998Z,76.80
2018-10-09T01:45:54.482Z,76.40
2018-10-09T01:48:21.982Z,76.70
2018-10-09T01:50:49.509Z,76.80
2018-10-09T01:53:17.202Z,76.80
2018-10-09T01:55:44.739Z,76.70
2018-10-09T01:58:12.217Z,76.40
2018-10-09T02:00:39.654Z,77.20
2018-10-09T02:03:07.093Z,76.80
2018-10-09T02:05:34.534Z,77.00
2018-10-09T02:08:02.032Z,77.30
2018-10-09T02:10:29.623Z,77.20
2018-10-09T02:12:57.041Z,77.30
2018-10-09T02:15:24.442Z,77.10
2018-10-09T02:17:51.900Z,77.30
2018-10-09T02:20:19.554Z,77.30
2018-10-09T02:22:47.023Z,77.00
2018-10-09T02:25:14.511Z,76.40
2018-10-09T02:27:41.966Z,76.40
2018-10-09T02:30:09.825Z,76.60
2018-10-09T02:32:37.278Z,76.80
2018-10-09T02:35:04.920Z,76.80
2018-10-09T02:37:32.430Z,76.80
2018-10-09T02:39:59.865Z,77.00
2018-10-09T02:42:27.323Z,75.80
2018-10-09T02:44:54.807Z,76.00
2018-10-09T02:47:22.414Z,76.10
2018-10-09T02:49:49.820Z,76.40
2018-10-09T02:52:17.242Z,76.60
2018-10-09T02:54:44.706Z,76.70
2018-10-09T02:57:12.152Z,76.70
2018-10-09T02:59:39.618Z,76.20
2018-10-09T03:02:11.542Z,76.40
2018-10-09T03:04:38.890Z,76.00
2018-10-09T03:07:06.438Z,76.20
2018-10-09T03:09:33.937Z,76.40
2018-10-09T03:12:01.392Z,76.10
2018-10-09T03:14:28.813Z,76.00
2018-10-09T03:16:56.350Z,75.80
2018-10-09T03:19:24.067Z,75.60
2018-10-09T03:21:51.591Z,75.50
2018-10-09T03:24:19.229Z,75.60
2018-10-09T03:26:46.653Z,75.30
2018-10-09T03:29:14.092Z,75.30
2018-10-09T03:31:41.520Z,75.10
2018-10-09T03:34:09.089Z,75.60
2018-10-09T03:36:36.515Z,76.10
2018-10-09T03:39:05.527Z,76.30
2018-10-09T03:41:32.932Z,76.70
2018-10-09T03:44:00.370Z,76.60
2018-10-09T03:46:27.803Z,76.70
2018-10-09T03:48:55.278Z,77.00
2018-10-09T03:51:22.731Z,77.10
2018-10-09T03:53:50.225Z,77.10
2018-10-09T03:56:17.732Z,77.20
2018-10-09T03:58:45.195Z,77.30
2018-10-09T04:01:12.639Z,77.00
2018-10-09T04:03:40.103Z,76.40
2018-10-09T04:06:07.562Z,77.00
2018-10-09T04:08:35.050Z,75.90
2018-10-09T04:11:02.519Z,75.80
2018-10-09T04:13:30.606Z,76.00
2018-10-09T04:15:58.652Z,76.50
2018-10-09T04:18:26.129Z,76.00
2018-10-09T04:20:53.557Z,75.80
2018-10-09T04:23:20.983Z,75.70
2018-10-09T04:25:48.421Z,75.40
2018-10-09T04:28:15.914Z,75.20
2018-10-09T04:30:43.379Z,75.30
2018-10-09T04:33:10.808Z,75.70
2018-10-09T04:35:38.374Z,75.90
2018-10-09T04:38:05.742Z,75.70
2018-10-09T04:40:33.162Z,75.60
2018-10-09T04:43:00.664Z,76.30
2018-10-09T04:45:28.716Z,75.20
2018-10-09T04:47:56.976Z,75.10
2018-10-09T04:50:24.479Z,75.40
2018-10-09T04:52:51.985Z,75.80
2018-10-09T04:55:19.557Z,76.10
2018-10-09T04:57:47.165Z,76.20
2018-10-09T05:00:14.659Z,76.40
2018-10-09T05:02:42.111Z,76.40
2018-10-09T05:05:09.618Z,76.40
2018-10-09T05:07:37.079Z,76.30
2018-10-09T05:10:04.953Z,76.20
2018-10-09T05:12:32.501Z,76.30
2018-10-09T05:14:59.988Z,76.40
2018-10-09T05:17:27.543Z,76.60
2018-10-09T05:19:55.051Z,76.50
2018-10-09T05:22:22.518Z,76.60
2018-10-09T05:24:49.919Z,76.70
2018-10-09T05:27:17.399Z,76.80
2018-10-09T05:29:44.795Z,76.40
2018-10-09T05:32:12.230Z,76.10
2018-10-09T05:34:39.683Z,75.90
2018-10-09T05:37:07.347Z,75.90
2018-10-09T05:39:39.230Z,75.90
2018-10-09T05:42:06.684Z,76.20
2018-10-09T05:44:34.110Z,76.20
2018-10-09T05:47:01.571Z,76.00
2018-10-09T05:49:29.024Z,75.80
2018-10-09T05:51:56.485Z,75.90
2018-10-09T05:54:23.989Z,75.80
2018-10-09T05:56:51.481Z,75.60
2018-10-09T05:59:23.406Z,75.60
2018-10-09T06:01:50.961Z,75.50
2018-10-09T06:04:18.362Z,75.20
2018-10-09T06:06:45.853Z,75.50
2018-10-09T06:09:13.320Z,75.50
2018-10-09T06:11:40.777Z,75.80
2018-10-09T06:14:08.294Z,75.70
2018-10-09T06:16:36.535Z,75.40
2018-10-09T06:19:04.181Z,75.40
2018-10-09T06:21:31.654Z,75.20
2018-10-09T06:23:59.102Z,75.30
2018-10-09T06:26:26.598Z,75.30
2018-10-09T06:28:54.120Z,75.40
2018-10-09T06:31:21.614Z,75.50
2018-10-09T06:33:49.192Z,75.30
2018-10-09T06:36:16.583Z,75.10
2018-10-09T06:38:44.030Z,75.40
2018-10-09T06:41:11.440Z,75.90
2018-10-09T06:43:38.942Z,75.80
2018-10-09T06:46:06.435Z,75.80
2018-10-09T06:48:35.524Z,75.80
2018-10-09T06:51:08.339Z,75.80
2018-10-09T06:53:37.515Z,76.20
2018-10-09T06:56:12.424Z,76.10
2018-10-09T06:58:43.708Z,76.70
2018-10-09T07:01:14.123Z,77.40
2018-10-09T07:03:41.933Z,76.70
2018-10-09T07:06:10.556Z,77.00
2018-10-09T07:08:39.622Z,77.00
2018-10-09T07:11:08.315Z,76.30
2018-10-09T07:13:36.611Z,77.60
2018-10-09T07:16:06.572Z,78.40
2018-10-09T07:18:34.811Z,78.70
2018-10-09T07:21:03.168Z,78.80
2018-10-09T07:23:32.615Z,79.50
2018-10-09T07:26:01.590Z,80.50
2018-10-09T07:28:30.318Z,81.60
2018-10-09T07:31:00.712Z,79.40
2018-10-09T07:33:33.612Z,79.80
2018-10-09T07:36:06.108Z,79.80
2018-10-09T07:38:43.490Z,81.50
2018-10-09T07:41:13.314Z,80.30
2018-10-09T07:43:42.676Z,80.00
2018-10-09T07:46:16.027Z,81.70
2018-10-09T07:48:43.611Z,80.30
2018-10-09T07:51:16.750Z,80.10
2018-10-09T07:53:56.419Z,80.90
2018-10-09T07:56:26.813Z,81.30
2018-10-09T07:58:56.098Z,81.20
2018-10-09T08:01:24.407Z,80.90
2018-10-09T08:03:54.043Z,82.70
2018-10-09T08:06:22.659Z,80.80
2018-10-09T08:08:50.866Z,82.10
2018-10-09T08:11:19.319Z,81.70
2018-10-09T08:13:47.493Z,81.00
2018-10-09T08:16:20.725Z,80.60
2018-10-09T08:18:53.740Z,79.80
2018-10-09T08:21:22.141Z,80.60
2018-10-09T08:23:51.460Z,82.10
2018-10-09T08:26:25.246Z,82.00
2018-10-09T08:28:53.124Z,82.10
2018-10-09T08:31:22.256Z,81.10
2018-10-09T08:33:51.874Z,82.10
2018-10-09T08:36:25.935Z,82.50
2018-10-09T08:39:00.652Z,82.60
2018-10-09T08:41:30.394Z,82.60
2018-10-09T08:46:53.543Z,83.00
2018-10-09T08:49:22.187Z,81.70
2018-10-09T08:51:53.354Z,80.50
2018-10-09T08:54:21.146Z,80.80
2018-10-09T08:56:50.653Z,80.30
2018-10-09T08:59:19.540Z,82.30
2018-10-09T09:01:50.512Z,82.80
2018-10-09T09:04:18.476Z,81.90
2018-10-09T09:06:46.219Z,82.90
2018-10-09T09:09:15.411Z,83.20
2018-10-09T09:11:48.999Z,83.40
2018-10-09T09:14:18.609Z,83.20
2018-10-09T09:16:46.426Z,83.30
2018-10-09T09:19:14.637Z,83.20
2018-10-09T09:21:43.333Z,83.30
2018-10-09T09:24:15.724Z,83.30
2018-10-09T09:26:43.558Z,83.60
2018-10-09T09:29:15.553Z,83.60
2018-10-09T09:31:43.812Z,82.70
2018-10-09T09:34:14.197Z,83.10
2018-10-09T09:36:47.456Z,83.50
2018-10-09T09:39:17.844Z,83.40
2018-10-09T09:41:46.957Z,83.00
2018-10-09T09:44:16.532Z,82.80
2018-10-09T09:46:52.685Z,82.50
2018-10-09T09:49:20.974Z,82.30
2018-10-09T09:51:54.124Z,82.10
2018-10-09T09:54:31.748Z,81.60
2018-10-09T10:00:05.324Z,80.00
2018-10-09T10:02:33.737Z,79.60
2018-10-09T10:05:07.161Z,80.20
2018-10-09T10:07:35.247Z,80.20
2018-10-09T10:10:09.522Z,79.80
2018-10-09T10:12:42.881Z,79.50
2018-10-09T10:15:14.084Z,79.20
2018-10-09T10:17:42.314Z,79.00
2018-10-09T10:20:10.652Z,78.40
2018-10-09T10:22:38.666Z,78.70
2018-10-09T10:25:07.735Z,78.60
2018-10-09T10:27:38.367Z,78.70
2018-10-09T10:30:07.851Z,78.40
2018-10-09T10:32:36.137Z,78.10
2018-10-09T10:35:05.718Z,78.30
2018-10-09T10:37:34.790Z,77.60
2018-10-09T10:40:05.614Z,77.00
2018-10-09T10:42:35.496Z,76.50
2018-10-09T10:45:04.725Z,75.90
2018-10-09T10:47:33.358Z,75.70
2018-10-09T10:50:01.806Z,75.20
2018-10-09T10:52:31.359Z,75.50
2018-10-09T10:55:01.567Z,75.30
2018-10-09T10:57:34.660Z,74.90
2018-10-09T11:00:03.990Z,74.10
2018-10-09T11:02:34.073Z,73.90
2018-10-09T11:05:04.788Z,73.30
2018-10-09T11:07:32.957Z,73.30
2018-10-09T11:13:03.376Z,72.10
2018-10-09T11:15:38.910Z,72.20
2018-10-09T11:18:12.129Z,71.60
2018-10-09T11:23:22.239Z,71.60
2018-10-09T11:25:54.858Z,71.20
2018-10-09T11:28:25.258Z,71.40
2018-10-09T11:30:52.976Z,70.80
2018-10-09T11:33:24.603Z,70.00
2018-10-09T11:35:58.951Z,70.20
2018-10-09T11:38:30.039Z,69.60
2018-10-09T11:40:59.101Z,69.00
2018-10-09T11:43:30.626Z,68.10
2018-10-09T11:46:03.362Z,68.00
2018-10-09T11:48:39.647Z,68.60
2018-10-09T11:51:18.582Z,68.70
2018-10-09T12:40:17.847Z,67.50
2018-10-09T12:45:27.494Z,68.60
2018-10-09T12:48:00.817Z,68.70
2018-10-09T12:50:29.909Z,68.40
2018-10-09T12:53:00.833Z,69.20
2018-10-09T12:55:34.391Z,68.60
2018-10-09T12:58:03.699Z,69.10
2018-10-09T13:00:36.974Z,69.10
2018-10-09T13:03:11.040Z,68.80
2018-10-09T13:05:39.245Z,68.80
2018-10-09T13:08:12.618Z,68.50
2018-10-09T13:10:48.069Z,68.60
2018-10-09T13:13:16.611Z,68.20
2018-10-09T13:15:44.765Z,68.30
2018-10-09T13:18:14.148Z,68.20
2018-10-09T13:20:42.053Z,67.40
2018-10-09T13:25:50.145Z,67.70
2018-10-09T13:28:18.520Z,67.10
2018-10-09T13:30:52.189Z,67.40
2018-10-09T13:33:23.802Z,67.50
2018-10-09T13:35:59.450Z,67.40
2018-10-09T13:38:27.690Z,67.30
2018-10-09T13:40:56.112Z,67.60
2018-10-09T13:43:25.724Z,66.80
2018-10-09T13:45:54.072Z,66.40
2018-10-09T13:48:22.841Z,66.50
2018-10-09T13:50:51.950Z,66.40
2018-10-09T13:53:21.897Z,66.40
2018-10-09T13:55:50.686Z,66.00
2018-10-09T13:58:19.062Z,66.20
2018-10-09T14:01:02.359Z,66.80
2018-10-09T14:03:36.541Z,66.10
2018-10-09T14:06:07.541Z,66.10
2018-10-09T14:08:42.400Z,65.80
2018-10-09T14:11:10.810Z,65.70
2018-10-09T14:13:43.518Z,65.70
2018-10-09T14:16:12.623Z,65.70
2018-10-09T14:18:50.452Z,65.70
2018-10-09T14:21:23.612Z,64.90
2018-10-09T14:23:52.678Z,64.50
2018-10-09T14:26:21.704Z,64.30
2018-10-09T14:28:53.626Z,63.70
2018-10-09T14:31:23.557Z,63.60
2018-10-09T14:33:51.573Z,63.40
2018-10-09T14:36:20.883Z,63.40
2018-10-09T14:38:56.852Z,63.10
2018-10-09T14:41:25.561Z,62.40
2018-10-09T14:43:53.893Z,63.20
2018-10-09T14:46:24.018Z,64.00
2018-10-09T14:48:51.973Z,63.90
2018-10-09T14:51:24.588Z,64.10
2018-10-09T14:53:52.501Z,63.90
2018-10-09T14:56:27.622Z,63.60
2018-10-09T14:58:55.561Z,63.90
2018-10-09T15:01:28.400Z,63.40
2018-10-09T15:03:57.757Z,63.10
2018-10-09T15:06:25.661Z,63.00
2018-10-09T15:08:54.357Z,63.80
2018-10-09T15:11:26.894Z,63.00
2018-10-09T15:13:55.524Z,63.80
2018-10-09T15:16:29.048Z,63.30
2018-10-09T15:19:06.928Z,63.60
2018-10-09T15:21:35.582Z,63.40
2018-10-09T15:24:05.958Z,63.80
2018-10-09T15:26:34.679Z,63.70
2018-10-09T15:29:02.987Z,63.60
2018-10-09T15:31:31.816Z,64.10
2018-10-09T15:34:03.961Z,64.20
2018-10-09T15:36:32.916Z,64.90
2018-10-09T15:39:03.836Z,65.10
2018-10-09T15:41:33.153Z,64.80
2018-10-09T15:44:07.522Z,64.80
2018-10-09T15:46:35.647Z,64.60
2018-10-09T15:49:05.030Z,64.80
2018-10-09T15:51:37.875Z,65.10
2018-10-09T15:54:10.104Z,65.20
2018-10-09T15:56:37.974Z,65.30
2018-10-09T15:59:05.854Z,65.70
2018-10-09T16:01:33.791Z,65.90
2018-10-09T16:04:08.952Z,66.00
2018-10-09T16:06:36.501Z,66.20
2018-10-09T16:09:11.737Z,66.60
2018-10-09T16:11:46.064Z,67.40
2018-10-09T16:14:15.024Z,67.30
2018-10-09T16:16:51.174Z,67.30
2018-10-09T16:19:18.972Z,67.70
2018-10-09T16:21:55.121Z,68.00
2018-10-09T16:24:24.290Z,68.20
2018-10-09T16:26:52.585Z,68.60
2018-10-09T16:29:20.640Z,68.90
2018-10-09T16:31:52.410Z,69.50
2018-10-09T16:34:20.370Z,69.60
2018-10-09T16:36:48.664Z,69.90
2018-10-09T16:39:26.539Z,70.40
2018-10-09T16:41:55.643Z,70.60
2018-10-09T16:44:23.298Z,71.10
2018-10-09T16:46:50.921Z,71.30
2018-10-09T16:49:19.574Z,71.90
2018-10-09T16:51:47.585Z,72.20
2018-10-09T16:54:17.162Z,72.60
2018-10-09T16:56:52.489Z,72.90
2018-10-09T16:59:20.771Z,73.50
2018-10-09T17:01:50.164Z,73.90
2018-10-09T17:04:18.531Z,74.20
2018-10-09T17:06:47.627Z,74.60
2018-10-09T17:09:30.247Z,75.20
2018-10-09T17:12:10.366Z,75.50
2018-10-09T17:14:52.684Z,76.00
2018-10-09T17:17:21.699Z,76.30
2018-10-09T17:19:54.279Z,76.70
2018-10-09T17:22:23.139Z,77.00
2018-10-09T17:24:51.771Z,77.20
2018-10-09T17:27:20.034Z,77.70
2018-10-09T17:29:47.871Z,78.40
2018-10-09T17:32:16.279Z,78.40
2018-10-09T17:34:45.898Z,78.70
2018-10-09T17:37:23.420Z,79.30
2018-10-09T17:39:51.294Z,79.30
2018-10-09T17:42:20.733Z,79.20
2018-10-09T17:44:48.845Z,79.10
2018-10-09T17:47:17.565Z,79.30
2018-10-09T17:49:48.560Z,79.20
2018-10-09T17:52:16.333Z,79.40
2018-10-09T17:57:19.655Z,79.50
2018-10-09T17:59:47.544Z,79.70
2018-10-09T18:02:20.278Z,79.90
2018-10-09T18:04:54.203Z,80.00
2018-10-09T18:10:01.416Z,80.10
2018-10-09T18:12:30.052Z,80.30
2018-10-09T18:14:59.188Z,80.70
2018-10-09T18:17:27.380Z,80.50
2018-10-09T18:19:56.437Z,80.50
2018-10-09T18:22:24.288Z,80.60
2018-10-09T18:24:52.519Z,80.70
2018-10-09T18:27:24.062Z,80.70
2018-10-09T18:29:53.173Z,80.60
2018-10-09T18:32:21.343Z,80.70
2018-10-09T18:34:51.404Z,80.90
2018-10-09T18:37:20.056Z,80.90
2018-10-09T18:39:49.038Z,81.50
2018-10-09T18:42:17.137Z,81.70
2018-10-09T18:44:47.747Z,81.40
2018-10-09T18:47:22.024Z,81.40
2018-10-09T18:49:50.611Z,81.30
2018-10-09T18:52:19.237Z,81.30
2018-10-09T18:54:47.093Z,81.50
2018-10-09T18:57:15.231Z,81.30
2018-10-09T18:59:43.643Z,81.10
2018-10-09T19:02:17.026Z,81.20
2018-10-09T19:04:44.915Z,81.20
2018-10-09T19:07:12.827Z,81.30
2018-10-09T19:09:41.615Z,81.10
2018-10-09T19:12:10.211Z,81.10
2018-10-09T19:14:38.754Z,81.00
2018-10-09T19:17:06.929Z,81.20
2018-10-09T19:19:34.559Z,81.00
2018-10-09T19:22:06.766Z,81.20
2018-10-09T19:24:36.122Z,81.10
2018-10-09T19:27:07.899Z,80.90
2018-10-09T19:29:36.709Z,81.20
2018-10-09T19:32:09.039Z,81.10
2018-10-09T19:34:41.609Z,81.10
2018-10-09T19:37:10.772Z,81.20
2018-10-09T19:39:39.548Z,81.40
2018-10-09T19:42:09.780Z,81.40
2018-10-09T19:44:38.758Z,81.60
2018-10-09T19:47:07.023Z,81.60
2018-10-09T19:49:34.518Z,81.60
2018-10-09T19:52:02.023Z,81.70
2018-10-09T19:54:29.491Z,81.70
2018-10-09T19:56:57.090Z,81.50
2018-10-09T19:59:24.624Z,81.80
2018-10-09T20:01:52.367Z,81.60
2018-10-09T20:04:20.028Z,81.50
2018-10-09T20:06:47.657Z,81.30
2018-10-09T20:09:15.466Z,81.30
2018-10-09T20:11:43.085Z,81.30
2018-10-09T20:14:12.804Z,81.20
2018-10-09T20:16:40.350Z,81.40
2018-10-09T20:19:08.903Z,81.00
2018-10-09T20:21:36.442Z,81.10
2018-10-09T20:24:04.388Z,81.10
2018-10-09T20:26:32.419Z,81.00
2018-10-09T20:29:00.223Z,81.30
2018-10-09T20:31:27.859Z,81.20
2018-10-09T20:33:55.427Z,81.10
2018-10-09T20:36:22.898Z,81.10
2018-10-09T20:38:50.749Z,81.00
2018-10-09T20:41:18.299Z,80.90
2018-10-09T20:43:45.830Z,81.00
2018-10-09T20:46:13.463Z,81.10
2018-10-09T20:48:40.983Z,81.20
2018-10-09T20:51:08.507Z,81.40
2018-10-09T20:53:36.006Z,81.40
2018-10-09T20:56:03.768Z,81.50
2018-10-09T20:58:31.294Z,81.40
2018-10-09T21:00:58.788Z,81.40
2018-10-09T21:03:26.878Z,82.20
2018-10-09T21:05:54.424Z,81.40
2018-10-09T21:08:22.003Z,81.30
2018-10-09T21:10:49.506Z,81.30
2018-10-09T21:13:17.233Z,81.30
2018-10-09T21:15:44.756Z,81.20
2018-10-09T21:18:12.333Z,81.20
2018-10-09T21:20:39.908Z,81.40
2018-10-09T21:23:07.525Z,81.40
2018-10-09T21:25:35.124Z,81.60
2018-10-09T21:28:05.284Z,81.60
2018-10-09T21:30:32.843Z,81.60
2018-10-09T21:33:00.420Z,81.60
2018-10-09T21:35:27.968Z,81.40
2018-10-09T21:37:55.486Z,81.20
2018-10-09T21:40:22.954Z,81.00
2018-10-09T21:42:51.462Z,80.90
2018-10-09T21:45:18.916Z,81.00
2018-10-09T21:47:52.004Z,80.80
2018-10-09T21:50:19.543Z,80.70
2018-10-09T21:52:47.964Z,80.40
2018-10-09T21:55:15.443Z,80.40
2018-10-09T21:57:43.007Z,80.40
2018-10-09T22:00:10.558Z,80.40
2018-10-09T22:02:39.258Z,80.50
2018-10-09T22:05:07.644Z,80.60
2018-10-09T22:07:35.202Z,81.10
2018-10-09T22:10:02.807Z,81.00
2018-10-09T22:12:30.275Z,81.20
2018-10-09T22:14:57.767Z,80.80
2018-10-09T22:17:25.232Z,80.40
2018-10-09T22:19:52.719Z,80.30
2018-10-09T22:22:20.222Z,80.30
2018-10-09T22:24:47.700Z,80.50
2018-10-09T22:27:15.261Z,80.40
2018-10-09T22:29:42.723Z,80.20
2018-10-09T22:32:10.176Z,79.80
2018-10-09T22:34:37.694Z,79.50
2018-10-09T22:37:05.423Z,79.80
2018-10-09T22:39:33.481Z,79.80
2018-10-09T22:42:01.098Z,80.30
2018-10-09T22:44:28.754Z,80.30
2018-10-09T22:46:56.374Z,80.30
2018-10-09T22:49:24.109Z,80.40
2018-10-09T22:51:51.742Z,80.30
2018-10-09T22:54:19.327Z,80.30
2018-10-09T22:56:47.081Z,80.30
2018-10-09T22:59:14.632Z,80.40
2018-10-09T23:01:42.240Z,80.40
2018-10-09T23:04:09.831Z,80.90
2018-10-09T23:06:37.486Z,80.40
2018-10-09T23:09:07.851Z,80.40
2018-10-09T23:11:35.510Z,80.70
2018-10-09T23:14:03.091Z,81.30
2018-10-09T23:16:30.791Z,81.20
2018-10-09T23:18:58.654Z,81.90
2018-10-09T23:21:26.270Z,81.00
2018-10-09T23:23:53.887Z,81.20
2018-10-09T23:26:21.487Z,81.30
2018-10-09T23:28:49.641Z,81.60
2018-10-09T23:31:18.470Z,82.00
2018-10-09T23:33:58.599Z,82.30
2018-10-09T23:36:26.260Z,82.50
2018-10-09T23:38:53.805Z,82.30
2018-10-09T23:41:21.343Z,82.40
2018-10-09T23:43:52.615Z,82.50
2018-10-09T23:46:23.198Z,82.60
2018-10-09T23:49:15.772Z,82.80
2018-10-09T23:51:44.732Z,83.00
2018-10-09T23:54:56.292Z,82.80
2018-10-09T23:57:52.777Z,82.70
